sensor_id;sensor_type;location;lat;lon;timestamp;P1;durP1;ratioP1;P2;durP2;ratioP2
67456;SDS011;54319;52.038;4.640;2023-07-09T00:02:11;10.05;;;6.18;;
67456;SDS011;54319;52.038;4.640;2023-07-09T00:07:08;11.32;;;5.97;;
67456;SDS011;54319;52.038;4.640;2023-07-09T00:09:42;10.68;;;6.13;;
67456;SDS011;54319;52.038;4.640;2023-07-09T00:12:09;11.98;;;5.90;;
67456;SDS011;54319;52.038;4.640;2023-07-09T00:14:39;11.18;;;6.10;;
67456;SDS011;54319;52.038;4.640;2023-07-09T00:17:07;16.58;;;6.43;;
67456;SDS011;54319;52.038;4.640;2023-07-09T00:19:37;10.57;;;5.57;;
67456;SDS011;54319;52.038;4.640;2023-07-09T00:22:04;15.13;;;6.40;;
67456;SDS011;54319;52.038;4.640;2023-07-09T00:24:42;9.63;;;6.53;;
67456;SDS011;54319;52.038;4.640;2023-07-09T00:27:10;10.48;;;6.35;;
67456;SDS011;54319;52.038;4.640;2023-07-09T00:29:37;10.13;;;6.22;;
67456;SDS011;54319;52.038;4.640;2023-07-09T00:32:07;13.05;;;6.70;;
67456;SDS011;54319;52.038;4.640;2023-07-09T00:34:37;11.02;;;6.53;;
67456;SDS011;54319;52.038;4.640;2023-07-09T00:37:07;12.02;;;6.63;;
67456;SDS011;54319;52.038;4.640;2023-07-09T00:39:36;17.05;;;6.97;;
67456;SDS011;54319;52.038;4.640;2023-07-09T00:42:07;11.60;;;7.18;;
67456;SDS011;54319;52.038;4.640;2023-07-09T00:44:40;11.95;;;6.95;;
67456;SDS011;54319;52.038;4.640;2023-07-09T00:47:14;18.10;;;6.88;;
67456;SDS011;54319;52.038;4.640;2023-07-09T00:49:49;11.30;;;6.20;;
67456;SDS011;54319;52.038;4.640;2023-07-09T00:52:23;10.55;;;5.93;;
67456;SDS011;54319;52.038;4.640;2023-07-09T00:54:57;10.57;;;6.65;;
67456;SDS011;54319;52.038;4.640;2023-07-09T00:57:29;12.00;;;6.82;;
67456;SDS011;54319;52.038;4.640;2023-07-09T00:59:57;9.52;;;6.30;;
67456;SDS011;54319;52.038;4.640;2023-07-09T01:02:32;14.90;;;6.72;;
67456;SDS011;54319;52.038;4.640;2023-07-09T01:04:59;14.48;;;7.03;;
67456;SDS011;54319;52.038;4.640;2023-07-09T01:07:28;11.73;;;6.90;;
67456;SDS011;54319;52.038;4.640;2023-07-09T01:12:21;10.38;;;6.28;;
67456;SDS011;54319;52.038;4.640;2023-07-09T01:14:51;11.68;;;6.72;;
67456;SDS011;54319;52.038;4.640;2023-07-09T01:17:20;13.80;;;7.15;;
67456;SDS011;54319;52.038;4.640;2023-07-09T01:19:49;14.20;;;7.18;;
67456;SDS011;54319;52.038;4.640;2023-07-09T01:22:18;11.00;;;7.13;;
67456;SDS011;54319;52.038;4.640;2023-07-09T01:24:52;11.52;;;7.13;;
67456;SDS011;54319;52.038;4.640;2023-07-09T01:27:22;13.57;;;7.13;;
67456;SDS011;54319;52.038;4.640;2023-07-09T01:29:52;12.45;;;7.25;;
67456;SDS011;54319;52.038;4.640;2023-07-09T01:32:19;11.52;;;7.30;;
67456;SDS011;54319;52.038;4.640;2023-07-09T01:34:48;11.40;;;6.97;;
67456;SDS011;54319;52.038;4.640;2023-07-09T01:37:20;12.32;;;7.00;;
67456;SDS011;54319;52.038;4.640;2023-07-09T01:39:48;12.57;;;6.72;;
67456;SDS011;54319;52.038;4.640;2023-07-09T01:42:15;11.52;;;7.43;;
67456;SDS011;54319;52.038;4.640;2023-07-09T01:47:10;11.88;;;7.40;;
67456;SDS011;54319;52.038;4.640;2023-07-09T01:49:37;13.80;;;7.13;;
67456;SDS011;54319;52.038;4.640;2023-07-09T01:52:05;11.65;;;7.13;;
67456;SDS011;54319;52.038;4.640;2023-07-09T01:54:35;10.32;;;7.22;;
67456;SDS011;54319;52.038;4.640;2023-07-09T01:59:48;11.32;;;6.93;;
67456;SDS011;54319;52.038;4.640;2023-07-09T02:02:16;13.27;;;6.68;;
67456;SDS011;54319;52.038;4.640;2023-07-09T02:04:48;12.05;;;7.07;;
67456;SDS011;54319;52.038;4.640;2023-07-09T02:07:16;11.68;;;7.20;;
67456;SDS011;54319;52.038;4.640;2023-07-09T02:09:45;11.73;;;7.00;;
67456;SDS011;54319;52.038;4.640;2023-07-09T02:12:12;13.73;;;7.63;;
67456;SDS011;54319;52.038;4.640;2023-07-09T02:14:40;13.18;;;7.78;;
67456;SDS011;54319;52.038;4.640;2023-07-09T02:17:08;12.68;;;7.70;;
67456;SDS011;54319;52.038;4.640;2023-07-09T02:19:36;10.27;;;7.25;;
67456;SDS011;54319;52.038;4.640;2023-07-09T02:22:03;11.00;;;7.35;;
67456;SDS011;54319;52.038;4.640;2023-07-09T02:24:30;11.65;;;7.38;;
67456;SDS011;54319;52.038;4.640;2023-07-09T02:26:59;12.63;;;7.70;;
67456;SDS011;54319;52.038;4.640;2023-07-09T02:29:28;14.25;;;7.22;;
67456;SDS011;54319;52.038;4.640;2023-07-09T02:31:56;11.43;;;7.28;;
67456;SDS011;54319;52.038;4.640;2023-07-09T02:34:24;11.98;;;7.45;;
67456;SDS011;54319;52.038;4.640;2023-07-09T02:36:51;13.15;;;7.45;;
67456;SDS011;54319;52.038;4.640;2023-07-09T02:39:19;11.85;;;7.55;;
67456;SDS011;54319;52.038;4.640;2023-07-09T02:41:46;13.07;;;7.55;;
67456;SDS011;54319;52.038;4.640;2023-07-09T02:46:41;11.38;;;6.80;;
67456;SDS011;54319;52.038;4.640;2023-07-09T02:49:09;10.40;;;6.78;;
67456;SDS011;54319;52.038;4.640;2023-07-09T02:51:36;17.98;;;7.55;;
67456;SDS011;54319;52.038;4.640;2023-07-09T02:54:03;10.73;;;6.50;;
67456;SDS011;54319;52.038;4.640;2023-07-09T02:58:57;11.35;;;6.78;;
67456;SDS011;54319;52.038;4.640;2023-07-09T03:01:26;10.52;;;6.60;;
67456;SDS011;54319;52.038;4.640;2023-07-09T03:03:52;11.57;;;7.53;;
67456;SDS011;54319;52.038;4.640;2023-07-09T03:06:20;12.98;;;8.05;;
67456;SDS011;54319;52.038;4.640;2023-07-09T03:08:47;13.48;;;8.00;;
67456;SDS011;54319;52.038;4.640;2023-07-09T03:11:15;12.93;;;8.35;;
67456;SDS011;54319;52.038;4.640;2023-07-09T03:13:42;17.55;;;8.07;;
67456;SDS011;54319;52.038;4.640;2023-07-09T03:16:08;16.98;;;7.97;;
67456;SDS011;54319;52.038;4.640;2023-07-09T03:21:03;11.30;;;7.40;;
67456;SDS011;54319;52.038;4.640;2023-07-09T03:23:30;13.35;;;7.13;;
67456;SDS011;54319;52.038;4.640;2023-07-09T03:25:57;18.10;;;7.80;;
67456;SDS011;54319;52.038;4.640;2023-07-09T03:28:25;10.35;;;7.25;;
67456;SDS011;54319;52.038;4.640;2023-07-09T03:30:53;11.63;;;6.97;;
67456;SDS011;54319;52.038;4.640;2023-07-09T03:33:21;10.25;;;7.03;;
67456;SDS011;54319;52.038;4.640;2023-07-09T03:35:50;13.13;;;7.38;;
67456;SDS011;54319;52.038;4.640;2023-07-09T03:38:17;12.05;;;8.07;;
67456;SDS011;54319;52.038;4.640;2023-07-09T03:40:44;11.80;;;7.30;;
67456;SDS011;54319;52.038;4.640;2023-07-09T03:43:11;11.95;;;7.82;;
67456;SDS011;54319;52.038;4.640;2023-07-09T03:45:38;13.48;;;8.65;;
67456;SDS011;54319;52.038;4.640;2023-07-09T03:48:05;18.73;;;8.60;;
67456;SDS011;54319;52.038;4.640;2023-07-09T03:50:32;13.80;;;8.85;;
67456;SDS011;54319;52.038;4.640;2023-07-09T03:53:00;13.57;;;9.43;;
67456;SDS011;54319;52.038;4.640;2023-07-09T03:55:26;12.85;;;9.23;;
67456;SDS011;54319;52.038;4.640;2023-07-09T03:57:53;14.45;;;10.05;;
67456;SDS011;54319;52.038;4.640;2023-07-09T04:00:20;14.45;;;9.38;;
67456;SDS011;54319;52.038;4.640;2023-07-09T04:02:50;16.95;;;10.02;;
67456;SDS011;54319;52.038;4.640;2023-07-09T04:05:17;13.52;;;9.40;;
67456;SDS011;54319;52.038;4.640;2023-07-09T04:07:44;14.98;;;10.00;;
67456;SDS011;54319;52.038;4.640;2023-07-09T04:10:13;15.00;;;9.95;;
67456;SDS011;54319;52.038;4.640;2023-07-09T04:12:40;16.90;;;9.70;;
67456;SDS011;54319;52.038;4.640;2023-07-09T04:15:07;13.80;;;9.35;;
67456;SDS011;54319;52.038;4.640;2023-07-09T04:17:34;13.45;;;8.93;;
67456;SDS011;54319;52.038;4.640;2023-07-09T04:20:01;17.10;;;9.73;;
67456;SDS011;54319;52.038;4.640;2023-07-09T04:22:30;15.35;;;9.25;;
67456;SDS011;54319;52.038;4.640;2023-07-09T04:24:57;16.05;;;8.95;;
67456;SDS011;54319;52.038;4.640;2023-07-09T04:27:25;13.90;;;9.13;;
67456;SDS011;54319;52.038;4.640;2023-07-09T04:29:52;17.65;;;10.48;;
67456;SDS011;54319;52.038;4.640;2023-07-09T04:32:20;16.33;;;9.05;;
67456;SDS011;54319;52.038;4.640;2023-07-09T04:34:47;17.67;;;9.65;;
67456;SDS011;54319;52.038;4.640;2023-07-09T04:39:42;13.10;;;9.10;;
67456;SDS011;54319;52.038;4.640;2023-07-09T04:42:09;15.35;;;9.10;;
67456;SDS011;54319;52.038;4.640;2023-07-09T04:44:39;15.43;;;8.85;;
67456;SDS011;54319;52.038;4.640;2023-07-09T04:47:06;15.05;;;9.32;;
67456;SDS011;54319;52.038;4.640;2023-07-09T04:49:33;13.40;;;8.52;;
67456;SDS011;54319;52.038;4.640;2023-07-09T04:54:27;12.73;;;8.20;;
67456;SDS011;54319;52.038;4.640;2023-07-09T04:56:53;13.90;;;8.18;;
67456;SDS011;54319;52.038;4.640;2023-07-09T04:59:21;15.60;;;9.25;;
67456;SDS011;54319;52.038;4.640;2023-07-09T05:01:49;12.93;;;8.77;;
67456;SDS011;54319;52.038;4.640;2023-07-09T05:04:16;16.98;;;9.40;;
67456;SDS011;54319;52.038;4.640;2023-07-09T05:06:43;14.10;;;9.27;;
67456;SDS011;54319;52.038;4.640;2023-07-09T05:09:09;14.02;;;9.75;;
67456;SDS011;54319;52.038;4.640;2023-07-09T05:11:36;14.90;;;10.00;;
67456;SDS011;54319;52.038;4.640;2023-07-09T05:14:03;18.02;;;10.55;;
67456;SDS011;54319;52.038;4.640;2023-07-09T05:18:58;19.55;;;10.43;;
67456;SDS011;54319;52.038;4.640;2023-07-09T05:21:24;18.13;;;11.13;;
67456;SDS011;54319;52.038;4.640;2023-07-09T05:23:51;19.35;;;10.45;;
67456;SDS011;54319;52.038;4.640;2023-07-09T05:26:18;18.88;;;10.95;;
67456;SDS011;54319;52.038;4.640;2023-07-09T05:28:44;17.05;;;11.32;;
67456;SDS011;54319;52.038;4.640;2023-07-09T05:31:11;17.83;;;10.43;;
67456;SDS011;54319;52.038;4.640;2023-07-09T05:33:38;15.00;;;10.32;;
67456;SDS011;54319;52.038;4.640;2023-07-09T05:36:06;18.52;;;10.35;;
67456;SDS011;54319;52.038;4.640;2023-07-09T05:38:33;18.85;;;10.05;;
67456;SDS011;54319;52.038;4.640;2023-07-09T05:41:00;19.42;;;11.95;;
67456;SDS011;54319;52.038;4.640;2023-07-09T05:43:29;22.98;;;13.38;;
67456;SDS011;54319;52.038;4.640;2023-07-09T05:45:56;21.52;;;14.38;;
67456;SDS011;54319;52.038;4.640;2023-07-09T05:50:52;19.40;;;14.25;;
67456;SDS011;54319;52.038;4.640;2023-07-09T05:53:22;22.67;;;16.50;;
67456;SDS011;54319;52.038;4.640;2023-07-09T05:55:52;22.98;;;16.00;;
67456;SDS011;54319;52.038;4.640;2023-07-09T05:58:19;26.77;;;17.98;;
67456;SDS011;54319;52.038;4.640;2023-07-09T06:00:45;27.88;;;18.90;;
67456;SDS011;54319;52.038;4.640;2023-07-09T06:03:17;27.85;;;18.42;;
67456;SDS011;54319;52.038;4.640;2023-07-09T06:05:44;27.67;;;18.58;;
67456;SDS011;54319;52.038;4.640;2023-07-09T06:08:10;27.40;;;18.90;;
67456;SDS011;54319;52.038;4.640;2023-07-09T06:10:40;27.30;;;19.95;;
67456;SDS011;54319;52.038;4.640;2023-07-09T06:13:15;29.25;;;20.10;;
67456;SDS011;54319;52.038;4.640;2023-07-09T06:15:43;28.25;;;19.88;;
67456;SDS011;54319;52.038;4.640;2023-07-09T06:18:10;25.52;;;21.02;;
67456;SDS011;54319;52.038;4.640;2023-07-09T06:20:37;33.50;;;22.27;;
67456;SDS011;54319;52.038;4.640;2023-07-09T06:23:04;33.08;;;22.00;;
67456;SDS011;54319;52.038;4.640;2023-07-09T06:25:31;29.75;;;21.38;;
67456;SDS011;54319;52.038;4.640;2023-07-09T06:27:59;29.30;;;20.10;;
67456;SDS011;54319;52.038;4.640;2023-07-09T06:30:27;31.67;;;21.60;;
67456;SDS011;54319;52.038;4.640;2023-07-09T06:32:53;28.67;;;21.13;;
67456;SDS011;54319;52.038;4.640;2023-07-09T06:35:20;24.50;;;19.23;;
67456;SDS011;54319;52.038;4.640;2023-07-09T06:37:47;28.35;;;20.50;;
67456;SDS011;54319;52.038;4.640;2023-07-09T06:40:14;25.55;;;20.23;;
67456;SDS011;54319;52.038;4.640;2023-07-09T06:42:42;28.42;;;20.70;;
67456;SDS011;54319;52.038;4.640;2023-07-09T06:45:10;28.35;;;21.08;;
67456;SDS011;54319;52.038;4.640;2023-07-09T06:47:36;27.15;;;20.65;;
67456;SDS011;54319;52.038;4.640;2023-07-09T06:50:03;29.73;;;20.95;;
67456;SDS011;54319;52.038;4.640;2023-07-09T06:52:31;29.17;;;20.95;;
67456;SDS011;54319;52.038;4.640;2023-07-09T06:54:57;26.10;;;19.98;;
67456;SDS011;54319;52.038;4.640;2023-07-09T06:57:24;25.92;;;20.85;;
67456;SDS011;54319;52.038;4.640;2023-07-09T06:59:51;29.88;;;20.77;;
67456;SDS011;54319;52.038;4.640;2023-07-09T07:02:19;25.45;;;19.70;;
67456;SDS011;54319;52.038;4.640;2023-07-09T07:04:45;26.98;;;20.52;;
67456;SDS011;54319;52.038;4.640;2023-07-09T07:07:12;31.73;;;20.60;;
67456;SDS011;54319;52.038;4.640;2023-07-09T07:09:38;24.85;;;18.85;;
67456;SDS011;54319;52.038;4.640;2023-07-09T07:12:05;21.58;;;16.70;;
67456;SDS011;54319;52.038;4.640;2023-07-09T07:14:33;23.77;;;15.82;;
67456;SDS011;54319;52.038;4.640;2023-07-09T07:16:59;18.25;;;12.00;;
67456;SDS011;54319;52.038;4.640;2023-07-09T07:19:27;19.67;;;9.70;;
67456;SDS011;54319;52.038;4.640;2023-07-09T07:21:54;13.48;;;9.45;;
67456;SDS011;54319;52.038;4.640;2023-07-09T07:24:21;17.05;;;9.15;;
67456;SDS011;54319;52.038;4.640;2023-07-09T07:26:47;20.27;;;11.43;;
67456;SDS011;54319;52.038;4.640;2023-07-09T07:29:14;14.77;;;10.85;;
67456;SDS011;54319;52.038;4.640;2023-07-09T07:31:40;19.60;;;10.93;;
67456;SDS011;54319;52.038;4.640;2023-07-09T07:34:07;14.90;;;10.38;;
67456;SDS011;54319;52.038;4.640;2023-07-09T07:36:35;18.02;;;11.90;;
67456;SDS011;54319;52.038;4.640;2023-07-09T07:39:02;16.17;;;10.93;;
67456;SDS011;54319;52.038;4.640;2023-07-09T07:41:28;13.80;;;8.80;;
67456;SDS011;54319;52.038;4.640;2023-07-09T07:43:55;11.38;;;7.15;;
67456;SDS011;54319;52.038;4.640;2023-07-09T07:46:22;14.95;;;7.10;;
67456;SDS011;54319;52.038;4.640;2023-07-09T07:48:48;13.63;;;7.47;;
67456;SDS011;54319;52.038;4.640;2023-07-09T07:51:15;11.13;;;6.60;;
67456;SDS011;54319;52.038;4.640;2023-07-09T07:53:43;9.15;;;6.07;;
67456;SDS011;54319;52.038;4.640;2023-07-09T07:56:10;10.45;;;6.20;;
67456;SDS011;54319;52.038;4.640;2023-07-09T07:58:36;8.82;;;5.43;;
67456;SDS011;54319;52.038;4.640;2023-07-09T08:01:03;7.75;;;4.93;;
67456;SDS011;54319;52.038;4.640;2023-07-09T08:03:29;9.15;;;5.35;;
67456;SDS011;54319;52.038;4.640;2023-07-09T08:05:56;8.90;;;5.65;;
67456;SDS011;54319;52.038;4.640;2023-07-09T08:08:23;8.60;;;5.03;;
67456;SDS011;54319;52.038;4.640;2023-07-09T08:13:17;7.10;;;4.68;;
67456;SDS011;54319;52.038;4.640;2023-07-09T08:15:45;8.15;;;5.03;;
67456;SDS011;54319;52.038;4.640;2023-07-09T08:18:12;6.85;;;4.45;;
67456;SDS011;54319;52.038;4.640;2023-07-09T08:23:08;6.28;;;4.15;;
67456;SDS011;54319;52.038;4.640;2023-07-09T08:25:35;8.25;;;4.15;;
67456;SDS011;54319;52.038;4.640;2023-07-09T08:28:04;5.30;;;3.97;;
67456;SDS011;54319;52.038;4.640;2023-07-09T08:30:31;8.18;;;4.50;;
67456;SDS011;54319;52.038;4.640;2023-07-09T08:35:24;6.78;;;4.30;;
67456;SDS011;54319;52.038;4.640;2023-07-09T08:37:51;8.23;;;4.40;;
67456;SDS011;54319;52.038;4.640;2023-07-09T08:40:17;6.63;;;4.13;;
67456;SDS011;54319;52.038;4.640;2023-07-09T08:42:46;6.75;;;4.50;;
67456;SDS011;54319;52.038;4.640;2023-07-09T08:45:19;7.13;;;4.40;;
67456;SDS011;54319;52.038;4.640;2023-07-09T08:47:58;8.65;;;4.40;;
67456;SDS011;54319;52.038;4.640;2023-07-09T08:50:31;6.15;;;3.88;;
67456;SDS011;54319;52.038;4.640;2023-07-09T08:53:02;6.90;;;4.38;;
67456;SDS011;54319;52.038;4.640;2023-07-09T08:58:24;7.68;;;4.65;;
67456;SDS011;54319;52.038;4.640;2023-07-09T09:01:12;8.90;;;5.03;;
67456;SDS011;54319;52.038;4.640;2023-07-09T09:03:44;9.07;;;4.97;;
67456;SDS011;54319;52.038;4.640;2023-07-09T09:06:15;11.20;;;5.10;;
67456;SDS011;54319;52.038;4.640;2023-07-09T09:08:44;9.43;;;4.93;;
67456;SDS011;54319;52.038;4.640;2023-07-09T09:11:20;12.73;;;5.20;;
67456;SDS011;54319;52.038;4.640;2023-07-09T09:13:52;8.02;;;5.13;;
67456;SDS011;54319;52.038;4.640;2023-07-09T09:16:24;7.80;;;5.00;;
67456;SDS011;54319;52.038;4.640;2023-07-09T09:18:54;8.18;;;4.45;;
67456;SDS011;54319;52.038;4.640;2023-07-09T09:21:25;9.25;;;4.63;;
67456;SDS011;54319;52.038;4.640;2023-07-09T09:23:58;8.75;;;4.05;;
67456;SDS011;54319;52.038;4.640;2023-07-09T09:26:32;6.40;;;4.40;;
67456;SDS011;54319;52.038;4.640;2023-07-09T09:29:00;9.98;;;4.88;;
67456;SDS011;54319;52.038;4.640;2023-07-09T09:31:28;7.88;;;4.78;;
67456;SDS011;54319;52.038;4.640;2023-07-09T09:33:56;9.85;;;4.40;;
67456;SDS011;54319;52.038;4.640;2023-07-09T09:36:24;11.80;;;4.85;;
67456;SDS011;54319;52.038;4.640;2023-07-09T09:38:52;9.48;;;4.93;;
67456;SDS011;54319;52.038;4.640;2023-07-09T09:41:20;7.90;;;4.55;;
67456;SDS011;54319;52.038;4.640;2023-07-09T09:43:48;9.93;;;4.20;;
67456;SDS011;54319;52.038;4.640;2023-07-09T09:46:18;6.20;;;3.92;;
67456;SDS011;54319;52.038;4.640;2023-07-09T09:48:49;6.43;;;4.25;;
67456;SDS011;54319;52.038;4.640;2023-07-09T09:51:16;7.53;;;4.20;;
67456;SDS011;54319;52.038;4.640;2023-07-09T09:53:46;9.20;;;3.92;;
67456;SDS011;54319;52.038;4.640;2023-07-09T09:56:17;6.28;;;4.10;;
67456;SDS011;54319;52.038;4.640;2023-07-09T09:58:45;6.55;;;3.60;;
67456;SDS011;54319;52.038;4.640;2023-07-09T10:01:13;8.25;;;3.95;;
67456;SDS011;54319;52.038;4.640;2023-07-09T10:03:42;6.50;;;3.83;;
67456;SDS011;54319;52.038;4.640;2023-07-09T10:06:14;9.70;;;4.30;;
67456;SDS011;54319;52.038;4.640;2023-07-09T10:08:46;10.13;;;4.03;;
67456;SDS011;54319;52.038;4.640;2023-07-09T10:11:24;6.93;;;4.30;;
67456;SDS011;54319;52.038;4.640;2023-07-09T10:14:00;5.97;;;4.10;;
67456;SDS011;54319;52.038;4.640;2023-07-09T10:16:31;8.38;;;4.15;;
67456;SDS011;54319;52.038;4.640;2023-07-09T10:19:09;8.15;;;3.97;;
67456;SDS011;54319;52.038;4.640;2023-07-09T10:21:45;7.20;;;3.40;;
67456;SDS011;54319;52.038;4.640;2023-07-09T10:24:25;8.45;;;3.40;;
67456;SDS011;54319;52.038;4.640;2023-07-09T10:27:03;4.40;;;2.28;;
67456;SDS011;54319;52.038;4.640;2023-07-09T10:29:45;2.83;;;2.10;;
67456;SDS011;54319;52.038;4.640;2023-07-09T10:32:34;3.92;;;2.50;;
67456;SDS011;54319;52.038;4.640;2023-07-09T10:35:10;4.30;;;2.63;;
67456;SDS011;54319;52.038;4.640;2023-07-09T10:37:50;3.45;;;2.70;;
67456;SDS011;54319;52.038;4.640;2023-07-09T10:40:30;6.88;;;2.88;;
67456;SDS011;54319;52.038;4.640;2023-07-09T10:43:02;4.43;;;2.85;;
67456;SDS011;54319;52.038;4.640;2023-07-09T10:45:33;7.40;;;3.00;;
67456;SDS011;54319;52.038;4.640;2023-07-09T10:48:07;8.02;;;2.92;;
67456;SDS011;54319;52.038;4.640;2023-07-09T10:50:39;6.32;;;2.90;;
67456;SDS011;54319;52.038;4.640;2023-07-09T10:53:12;5.95;;;3.15;;
67456;SDS011;54319;52.038;4.640;2023-07-09T10:55:47;4.80;;;3.00;;
67456;SDS011;54319;52.038;4.640;2023-07-09T10:58:22;6.53;;;3.15;;
67456;SDS011;54319;52.038;4.640;2023-07-09T11:00:56;4.25;;;2.78;;
67456;SDS011;54319;52.038;4.640;2023-07-09T11:03:27;3.47;;;2.10;;
67456;SDS011;54319;52.038;4.640;2023-07-09T11:06:10;4.93;;;2.22;;
67456;SDS011;54319;52.038;4.640;2023-07-09T11:08:43;4.72;;;2.50;;
67456;SDS011;54319;52.038;4.640;2023-07-09T11:11:14;7.28;;;2.38;;
67456;SDS011;54319;52.038;4.640;2023-07-09T11:13:50;3.93;;;2.37;;
67456;SDS011;54319;52.038;4.640;2023-07-09T11:16:24;3.67;;;2.17;;
67456;SDS011;54319;52.038;4.640;2023-07-09T11:18:55;5.00;;;2.35;;
67456;SDS011;54319;52.038;4.640;2023-07-09T11:21:25;6.93;;;2.40;;
67456;SDS011;54319;52.038;4.640;2023-07-09T11:23:53;4.30;;;2.60;;
67456;SDS011;54319;52.038;4.640;2023-07-09T11:26:22;4.07;;;2.30;;
67456;SDS011;54319;52.038;4.640;2023-07-09T11:28:51;5.38;;;2.47;;
67456;SDS011;54319;52.038;4.640;2023-07-09T11:31:21;5.50;;;2.80;;
67456;SDS011;54319;52.038;4.640;2023-07-09T11:33:59;4.45;;;2.80;;
67456;SDS011;54319;52.038;4.640;2023-07-09T11:36:28;4.13;;;2.78;;
67456;SDS011;54319;52.038;4.640;2023-07-09T11:38:58;4.15;;;2.58;;
67456;SDS011;54319;52.038;4.640;2023-07-09T11:41:27;5.50;;;3.13;;
67456;SDS011;54319;52.038;4.640;2023-07-09T11:44:04;4.75;;;2.72;;
67456;SDS011;54319;52.038;4.640;2023-07-09T11:46:42;5.70;;;2.92;;
67456;SDS011;54319;52.038;4.640;2023-07-09T11:49:19;3.78;;;2.90;;
67456;SDS011;54319;52.038;4.640;2023-07-09T11:51:50;4.18;;;3.13;;
67456;SDS011;54319;52.038;4.640;2023-07-09T11:54:22;5.43;;;3.30;;
67456;SDS011;54319;52.038;4.640;2023-07-09T11:56:55;8.35;;;3.10;;
67456;SDS011;54319;52.038;4.640;2023-07-09T11:59:23;6.30;;;3.15;;
67456;SDS011;54319;52.038;4.640;2023-07-09T12:01:50;6.07;;;3.20;;
67456;SDS011;54319;52.038;4.640;2023-07-09T12:04:19;5.18;;;2.90;;
67456;SDS011;54319;52.038;4.640;2023-07-09T12:06:49;3.58;;;2.22;;
67456;SDS011;54319;52.038;4.640;2023-07-09T12:09:19;3.60;;;2.15;;
67456;SDS011;54319;52.038;4.640;2023-07-09T12:11:49;4.75;;;2.10;;
67456;SDS011;54319;52.038;4.640;2023-07-09T12:14:18;3.83;;;2.72;;
67456;SDS011;54319;52.038;4.640;2023-07-09T12:16:47;6.10;;;2.75;;
67456;SDS011;54319;52.038;4.640;2023-07-09T12:19:16;4.80;;;2.60;;
67456;SDS011;54319;52.038;4.640;2023-07-09T12:21:45;4.10;;;2.00;;
67456;SDS011;54319;52.038;4.640;2023-07-09T12:24:17;2.60;;;1.80;;
67456;SDS011;54319;52.038;4.640;2023-07-09T12:26:51;2.00;;;1.75;;
67456;SDS011;54319;52.038;4.640;2023-07-09T12:29:18;3.95;;;2.00;;
67456;SDS011;54319;52.038;4.640;2023-07-09T12:31:45;6.18;;;2.28;;
67456;SDS011;54319;52.038;4.640;2023-07-09T12:34:12;3.75;;;2.10;;
67456;SDS011;54319;52.038;4.640;2023-07-09T12:36:41;3.80;;;2.20;;
67456;SDS011;54319;52.038;4.640;2023-07-09T12:39:12;6.72;;;2.47;;
67456;SDS011;54319;52.038;4.640;2023-07-09T12:41:41;8.05;;;2.65;;
67456;SDS011;54319;52.038;4.640;2023-07-09T12:44:17;4.80;;;2.90;;
67456;SDS011;54319;52.038;4.640;2023-07-09T12:46:46;7.72;;;3.10;;
67456;SDS011;54319;52.038;4.640;2023-07-09T12:49:20;8.63;;;3.22;;
67456;SDS011;54319;52.038;4.640;2023-07-09T12:51:48;8.35;;;3.40;;
67456;SDS011;54319;52.038;4.640;2023-07-09T12:54:16;7.47;;;3.50;;
67456;SDS011;54319;52.038;4.640;2023-07-09T12:56:44;7.05;;;3.40;;
67456;SDS011;54319;52.038;4.640;2023-07-09T12:59:19;8.48;;;3.10;;
67456;SDS011;54319;52.038;4.640;2023-07-09T13:01:50;5.47;;;2.88;;
67456;SDS011;54319;52.038;4.640;2023-07-09T13:04:21;8.60;;;2.88;;
67456;SDS011;54319;52.038;4.640;2023-07-09T13:06:53;9.43;;;3.88;;
67456;SDS011;54319;52.038;4.640;2023-07-09T13:09:25;9.65;;;3.00;;
67456;SDS011;54319;52.038;4.640;2023-07-09T13:11:52;10.20;;;3.72;;
67456;SDS011;54319;52.038;4.640;2023-07-09T13:14:22;11.27;;;3.28;;
67456;SDS011;54319;52.038;4.640;2023-07-09T13:16:51;11.55;;;3.70;;
67456;SDS011;54319;52.038;4.640;2023-07-09T13:19:18;9.10;;;3.05;;
67456;SDS011;54319;52.038;4.640;2023-07-09T13:21:45;7.53;;;3.80;;
67456;SDS011;54319;52.038;4.640;2023-07-09T13:24:17;9.63;;;3.67;;
67456;SDS011;54319;52.038;4.640;2023-07-09T13:26:47;9.52;;;3.92;;
67456;SDS011;54319;52.038;4.640;2023-07-09T13:29:14;11.02;;;4.00;;
67456;SDS011;54319;52.038;4.640;2023-07-09T13:31:43;13.38;;;4.30;;
67456;SDS011;54319;52.038;4.640;2023-07-09T13:34:16;10.80;;;4.75;;
67456;SDS011;54319;52.038;4.640;2023-07-09T13:36:45;9.45;;;4.88;;
67456;SDS011;54319;52.038;4.640;2023-07-09T13:41:39;12.30;;;5.07;;
67456;SDS011;54319;52.038;4.640;2023-07-09T13:44:10;12.65;;;5.10;;
67456;SDS011;54319;52.038;4.640;2023-07-09T13:46:39;15.35;;;5.97;;
67456;SDS011;54319;52.038;4.640;2023-07-09T13:51:37;15.20;;;5.40;;
67456;SDS011;54319;52.038;4.640;2023-07-09T13:54:06;11.18;;;5.07;;
67456;SDS011;54319;52.038;4.640;2023-07-09T13:59:11;12.52;;;5.43;;
67456;SDS011;54319;52.038;4.640;2023-07-09T14:01:41;10.45;;;5.20;;
67456;SDS011;54319;52.038;4.640;2023-07-09T14:04:10;10.55;;;5.07;;
67456;SDS011;54319;52.038;4.640;2023-07-09T14:06:39;10.38;;;5.13;;
67456;SDS011;54319;52.038;4.640;2023-07-09T14:09:08;10.88;;;5.15;;
67456;SDS011;54319;52.038;4.640;2023-07-09T14:11:34;7.90;;;4.70;;
67456;SDS011;54319;52.038;4.640;2023-07-09T14:14:09;7.35;;;4.43;;
67456;SDS011;54319;52.038;4.640;2023-07-09T14:16:42;8.65;;;4.05;;
67456;SDS011;54319;52.038;4.640;2023-07-09T14:19:11;10.15;;;4.60;;
67456;SDS011;54319;52.038;4.640;2023-07-09T14:21:39;6.32;;;3.60;;
67456;SDS011;54319;52.038;4.640;2023-07-09T14:24:08;8.45;;;4.00;;
67456;SDS011;54319;52.038;4.640;2023-07-09T14:26:44;10.65;;;4.35;;
67456;SDS011;54319;52.038;4.640;2023-07-09T14:29:11;17.15;;;6.07;;
67456;SDS011;54319;52.038;4.640;2023-07-09T14:31:39;17.52;;;6.10;;
67456;SDS011;54319;52.038;4.640;2023-07-09T14:34:12;12.75;;;5.25;;
67456;SDS011;54319;52.038;4.640;2023-07-09T14:36:46;15.80;;;6.43;;
67456;SDS011;54319;52.038;4.640;2023-07-09T14:41:39;13.57;;;6.82;;
67456;SDS011;54319;52.038;4.640;2023-07-09T14:44:12;12.85;;;6.00;;
67456;SDS011;54319;52.038;4.640;2023-07-09T14:46:47;17.70;;;6.28;;
67456;SDS011;54319;52.038;4.640;2023-07-09T14:51:42;20.67;;;6.63;;
67456;SDS011;54319;52.038;4.640;2023-07-09T14:54:10;11.45;;;5.95;;
67456;SDS011;54319;52.038;4.640;2023-07-09T14:56:46;14.73;;;7.18;;
67456;SDS011;54319;52.038;4.640;2023-07-09T14:59:13;12.15;;;6.82;;
67456;SDS011;54319;52.038;4.640;2023-07-09T15:01:39;14.35;;;7.25;;
67456;SDS011;54319;52.038;4.640;2023-07-09T15:04:07;14.68;;;7.22;;
67456;SDS011;54319;52.038;4.640;2023-07-09T15:06:54;11.90;;;6.40;;
67456;SDS011;54319;52.038;4.640;2023-07-09T15:09:22;13.02;;;6.43;;
67456;SDS011;54319;52.038;4.640;2023-07-09T15:11:50;11.98;;;5.88;;
67456;SDS011;54319;52.038;4.640;2023-07-09T15:14:19;11.00;;;5.50;;
67456;SDS011;54319;52.038;4.640;2023-07-09T15:16:46;9.68;;;5.15;;
67456;SDS011;54319;52.038;4.640;2023-07-09T15:19:12;8.02;;;4.72;;
67456;SDS011;54319;52.038;4.640;2023-07-09T15:21:40;8.27;;;5.03;;
67456;SDS011;54319;52.038;4.640;2023-07-09T15:24:09;9.85;;;5.40;;
67456;SDS011;54319;52.038;4.640;2023-07-09T15:26:40;9.70;;;5.00;;
67456;SDS011;54319;52.038;4.640;2023-07-09T15:29:09;9.90;;;4.63;;
67456;SDS011;54319;52.038;4.640;2023-07-09T15:31:40;7.32;;;4.38;;
67456;SDS011;54319;52.038;4.640;2023-07-09T15:34:06;9.05;;;4.55;;
67456;SDS011;54319;52.038;4.640;2023-07-09T15:36:33;8.65;;;4.13;;
67456;SDS011;54319;52.038;4.640;2023-07-09T15:39:00;6.57;;;4.03;;
67456;SDS011;54319;52.038;4.640;2023-07-09T15:41:28;7.88;;;4.32;;